Time;durP1;ratioP1;P1;durP2;ratioP2;P2;SDS_P1;SDS_P2;PMS_P1;PMS_P2;Temp;Humidity;BMP_temperature;BMP_pressure;BME280_temperature;BME280_humidity;BME280_pressure;Samples;Min_cycle;Max_cycle;Signal;HPM_P1;HPM_P2
2022/10/13 00:00:03;;;;;;;15.38;11.10;;;;;;;9.79;100.00;93547.69;2122033;27;20792;-71
2022/10/13 00:01:13;;;;;;;15.65;10.85;;;;;;;9.84;100.00;93551.81;2121751;27;20043;-72
2022/10/13 00:02:14;;;;;;;12.80;10.68;;;;;;;9.80;100.00;93546.53;2122470;27;20103;-71
2022/10/13 00:03:15;;;;;;;16.30;10.80;;;;;;;9.89;100.00;93546.03;2122507;27;20084;-71
2022/10/13 00:04:16;;;;;;;14.75;10.85;;;;;;;9.93;100.00;93540.66;2118230;27;20046;-75
2022/10/13 00:05:18;;;;;;;14.73;10.85;;;;;;;9.91;100.00;93538.38;2121966;27;20050;-72
2022/10/13 00:06:22;;;;;;;13.57;10.35;;;;;;;9.87;100.00;93539.56;2121435;27;20035;-72
2022/10/13 00:07:23;;;;;;;15.68;11.27;;;;;;;9.90;100.00;93536.09;2122204;27;20105;-72
2022/10/13 00:08:25;;;;;;;13.27;10.23;;;;;;;9.93;100.00;93541.41;2122550;27;20111;-71
2022/10/13 00:09:26;;;;;;;17.45;10.95;;;;;;;9.91;100.00;93533.03;2122072;27;20074;-73
2022/10/13 00:10:27;;;;;;;11.85;9.75;;;;;;;9.89;100.00;93543.38;2121748;27;20031;-73
2022/10/13 00:11:29;;;;;;;15.65;11.02;;;;;;;9.81;100.00;93533.94;2121432;27;20038;-73
2022/10/13 00:12:34;;;;;;;14.98;10.65;;;;;;;9.79;100.00;93528.25;2122374;27;20155;-71
2022/10/13 00:13:35;;;;;;;13.52;10.55;;;;;;;9.82;100.00;93519.41;2122649;27;20038;-71
2022/10/13 00:14:35;;;;;;;12.25;9.75;;;;;;;9.80;100.00;93525.16;2122305;27;20691;-73
2022/10/13 00:15:39;;;;;;;13.52;9.75;;;;;;;9.87;100.00;93515.53;2113680;28;20505;-75
2022/10/13 00:16:40;;;;;;;14.23;9.48;;;;;;;9.89;100.00;93515.91;2101255;28;20070;-72
2022/10/13 00:17:42;;;;;;;12.43;9.65;;;;;;;9.82;100.00;93519.41;2112845;28;20380;-71
2022/10/13 00:18:44;;;;;;;14.02;9.40;;;;;;;9.72;100.00;93513.06;2122460;27;20019;-72
2022/10/13 00:19:46;;;;;;;13.52;10.07;;;;;;;9.83;100.00;93510.25;2122217;27;20038;-72
2022/10/13 00:20:48;;;;;;;14.07;10.02;;;;;;;9.89;100.00;93518.59;2118417;27;20031;-72
2022/10/13 00:21:49;;;;;;;15.05;10.23;;;;;;;9.91;100.00;93518.94;2111464;28;20026;-72
2022/10/13 00:22:50;;;;;;;14.15;9.93;;;;;;;9.81;100.00;93523.25;2112986;27;20046;-74
2022/10/13 00:23:53;;;;;;;13.70;10.30;;;;;;;9.89;100.00;93524.69;2122260;27;20023;-73
2022/10/13 00:24:54;;;;;;;12.70;9.35;;;;;;;9.85;100.00;93531.97;2121843;27;20031;-73
2022/10/13 00:25:55;;;;;;;12.98;9.63;;;;;;;9.75;100.00;93522.19;2122392;27;20023;-73
2022/10/13 00:26:55;;;;;;;18.63;10.57;;;;;;;9.74;100.00;93528.66;2121519;27;20079;-72
2022/10/13 00:27:56;;;;;;;16.33;10.50;;;;;;;9.74;100.00;93528.66;2122428;27;20030;-72
2022/10/13 00:28:59;;;;;;;14.80;10.30;;;;;;;9.75;100.00;93528.28;2122474;27;20038;-72
2022/10/13 00:30:00;;;;;;;16.08;10.35;;;;;;;9.86;100.00;93530.06;2122108;27;20511;-72
2022/10/13 00:31:01;;;;;;;13.48;9.85;;;;;;;9.79;100.00;93531.66;2122366;27;20079;-74
2022/10/13 00:32:02;;;;;;;15.68;10.02;;;;;;;9.81;100.00;93523.25;2121861;27;20027;-72
2022/10/13 00:33:04;;;;;;;12.48;9.70;;;;;;;9.80;100.00;93519.81;2122694;27;20365;-74
2022/10/13 00:34:05;;;;;;;16.65;10.27;;;;;;;9.79;100.00;93523.66;2122503;27;20019;-72
2022/10/13 00:35:06;;;;;;;15.70;10.32;;;;;;;9.77;100.00;93517.19;2121727;27;20076;-73
2022/10/13 00:36:07;;;;;;;15.32;10.20;;;;;;;9.81;100.00;93518.66;2122054;27;20015;-72
2022/10/13 00:37:08;;;;;;;14.00;10.75;;;;;;;9.76;100.00;93516.44;2121929;27;20648;-73
2022/10/13 00:38:10;;;;;;;15.27;10.73;;;;;;;9.76;100.00;93521.03;2121665;27;20023;-74
2022/10/13 00:39:11;;;;;;;18.70;10.85;;;;;;;9.75;100.00;93517.59;2122269;27;20034;-73
2022/10/13 00:40:12;;;;;;;16.80;10.40;;;;;;;9.79;100.00;93521.00;2122004;27;20049;-71
2022/10/13 00:41:13;;;;;;;13.35;10.43;;;;;;;9.75;100.00;93530.94;2121785;27;20035;-72
2022/10/13 00:42:14;;;;;;;15.82;11.00;;;;;;;9.66;100.00;93522.66;2121980;27;20040;-72
2022/10/13 00:43:23;;;;;;;17.70;10.63;;;;;;;9.69;100.00;93527.19;2112495;28;20778;-73
2022/10/13 00:45:01;;;;;;;15.80;10.05;;;;;;;9.68;100.00;93522.25;2114357;27;20039;-73
2022/10/13 00:46:02;;;;;;;15.88;10.82;;;;;;;9.75;100.00;93527.53;2117574;27;20019;-72
2022/10/13 00:47:03;;;;;;;16.98;10.88;;;;;;;9.74;100.00;93532.09;2121551;27;20026;-73
2022/10/13 00:48:04;;;;;;;12.05;9.15;;;;;;;9.79;100.00;93525.56;2121152;27;20034;-73
2022/10/13 00:49:10;;;;;;;15.43;10.95;;;;;;;9.77;100.00;93528.63;2122087;27;20069;-73
2022/10/13 00:50:25;;;;;;;21.25;10.15;;;;;;;9.77;100.00;93525.97;2122140;27;20035;-72
2022/10/13 00:51:31;;;;;;;14.30;10.18;;;;;;;9.75;100.00;93519.53;2119324;27;20031;-71
2022/10/13 00:52:32;;;;;;;13.77;9.65;;;;;;;9.85;100.00;93523.97;2122114;27;20030;-72
2022/10/13 00:53:37;;;;;;;16.08;10.57;;;;;;;9.79;100.00;93526.31;2121521;27;20058;-72
2022/10/13 00:54:38;;;;;;;15.10;9.60;;;;;;;9.77;100.00;93519.88;2121570;27;20034;-72
2022/10/13 00:55:41;;;;;;;15.25;9.63;;;;;;;9.72;100.00;93514.97;2121484;27;20636;-73
2022/10/13 00:56:45;;;;;;;14.20;10.07;;;;;;;9.72;100.00;93525.66;2121999;27;20031;-73
2022/10/13 00:57:53;;;;;;;17.00;10.45;;;;;;;9.71;100.00;93518.81;2117561;27;20034;-73
2022/10/13 00:58:55;;;;;;;15.68;9.48;;;;;;;9.71;100.00;93524.91;2121307;27;20058;-73
2022/10/13 00:59:57;;;;;;;13.88;9.75;;;;;;;9.72;100.00;93523.72;2122038;27;20521;-72
2022/10/13 01:00:59;;;;;;;18.08;10.23;;;;;;;9.62;100.00;93526.53;2121746;27;20023;-73
2022/10/13 01:02:01;;;;;;;14.85;9.85;;;;;;;9.59;100.00;93528.84;2121442;27;20113;-72
2022/10/13 01:03:02;;;;;;;13.88;10.10;;;;;;;9.65;100.00;93523.06;2121663;27;20034;-74
2022/10/13 01:04:03;;;;;;;14.52;9.77;;;;;;;9.70;100.00;93525.28;2121178;27;20091;-72
2022/10/13 01:05:06;;;;;;;17.05;10.25;;;;;;;9.77;100.00;93527.88;2121774;27;20031;-73
2022/10/13 01:06:08;;;;;;;18.48;9.57;;;;;;;9.80;100.00;93527.09;2121626;27;20027;-72
2022/10/13 01:07:09;;;;;;;18.67;8.93;;;;;;;9.71;100.00;93522.22;2121755;27;20023;-73
2022/10/13 01:08:11;;;;;;;18.02;10.07;;;;;;;9.77;100.00;93525.19;2121527;27;20100;-73
2022/10/13 01:09:13;;;;;;;20.20;9.63;;;;;;;9.59;100.00;93520.81;2120947;27;20050;-73
2022/10/13 01:10:25;;;;;;;11.18;9.05;;;;;;;9.55;100.00;93514.78;2121683;27;20079;-74
2022/10/13 01:11:45;;;;;;;15.82;9.73;;;;;;;9.60;100.00;93516.25;2112576;28;20096;-74
2022/10/13 01:13:08;;;;;;;21.25;9.63;;;;;;;9.58;100.00;93518.56;2111688;27;20436;-73
2022/10/13 01:14:28;;;;;;;14.45;8.88;;;;;;;9.58;100.00;93516.66;2121379;27;20019;-74
2022/10/13 01:15:38;;;;;;;18.95;9.05;;;;;;;9.55;100.00;93522.78;2119632;27;20038;-74
2022/10/13 01:16:52;;;;;;;;;;;;;;;9.67;100.00;93518.09;2122096;27;20134;-73
2022/10/13 01:18:22;;;;;;;12.57;8.13;;;;;;;9.74;100.00;93516.06;2118519;27;19916;-73
2022/10/13 01:19:50;;;;;;;13.32;8.10;;;;;;;9.67;100.00;93516.16;2118056;27;20088;-73
2022/10/13 01:21:14;;;;;;;16.27;8.35;;;;;;;9.69;100.00;93507.75;2113191;27;20578;-73
2022/10/13 01:22:43;;;;;;;14.88;9.50;;;;;;;9.67;100.00;93516.16;2121219;27;20024;-73
2022/10/13 01:24:22;;;;;;;11.52;8.23;;;;;;;9.61;100.00;93509.00;2121697;27;20027;-74
2022/10/13 01:25:42;;;;;;;15.63;7.65;;;;;;;9.66;100.00;93514.66;2118697;27;20372;-73
2022/10/13 01:26:49;;;;;;;9.60;7.55;;;;;;;9.69;100.00;93511.19;2121340;27;20639;-72
2022/10/13 01:28:20;;;;;;;11.45;8.70;;;;;;;9.62;100.00;93505.19;2121322;27;20031;-73
2022/10/13 01:29:39;;;;;;;11.00;7.72;;;;;;;9.59;100.00;93504.81;2108157;27;20039;-74
2022/10/13 01:30:49;;;;;;;12.50;8.48;;;;;;;9.67;100.00;93500.16;2117251;27;20038;-72
2022/10/13 01:32:34;;;;;;;13.55;8.30;;;;;;;9.66;100.00;93501.31;2108563;28;20031;-72
2022/10/13 01:33:40;;;;;;;12.55;7.65;;;;;;;9.66;100.00;93508.53;2087730;28;20111;-72
2022/10/13 01:35:06;;;;;;;14.25;7.88;;;;;;;9.71;100.00;93500.13;2121062;27;20088;-72
2022/10/13 01:36:30;;;;;;;14.18;7.85;;;;;;;9.66;100.00;93498.66;2120526;27;20023;-72
2022/10/13 01:37:50;;;;;;;14.77;7.43;;;;;;;9.64;100.00;93502.88;2119197;27;20027;-74
2022/10/13 01:39:04;;;;;;;10.27;7.25;;;;;;;9.64;100.00;93498.28;2117794;27;20030;-72
2022/10/13 01:40:10;;;;;;;10.75;7.28;;;;;;;9.61;100.00;93499.06;2121250;27;20397;-72
2022/10/13 01:41:36;;;;;;;13.63;7.97;;;;;;;9.56;100.00;93492.25;2121234;27;20023;-72
2022/10/13 01:43:02;;;;;;;17.17;7.50;;;;;;;9.45;100.00;93496.22;2107145;28;20411;-71
2022/10/13 01:44:29;;;;;;;11.68;7.05;;;;;;;9.52;100.00;93488.88;2119809;27;20026;-74
2022/10/13 01:45:38;;;;;;;13.93;7.25;;;;;;;9.59;100.00;93490.72;2118968;27;20358;-72
2022/10/13 01:46:40;;;;;;;17.15;7.38;;;;;;;9.65;100.00;93489.09;2112461;28;20068;-72
2022/10/13 01:47:42;;;;;;;12.80;7.78;;;;;;;9.49;100.00;93489.69;2112233;28;20031;-72
2022/10/13 01:48:46;;;;;;;15.70;7.85;;;;;;;9.57;100.00;93491.13;2121549;27;20679;-71
2022/10/13 01:49:49;;;;;;;10.65;7.93;;;;;;;9.63;100.00;93486.09;2119960;27;20030;-71
2022/10/13 01:50:53;;;;;;;10.75;7.40;;;;;;;9.54;100.00;93491.16;2118826;27;20035;-73
2022/10/13 01:51:58;;;;;;;17.08;7.80;;;;;;;9.55;100.00;93488.09;2121044;27;20069;-73
2022/10/13 01:53:02;;;;;;;12.15;7.47;;;;;;;9.57;100.00;93488.47;2112069;28;20476;-72
2022/10/13 01:54:03;;;;;;;14.05;7.13;;;;;;;9.54;100.00;93493.84;2113013;28;20097;-72
2022/10/13 01:55:10;;;;;;;11.85;8.23;;;;;;;9.50;100.00;93493.88;2121384;27;20545;-72
2022/10/13 01:56:11;;;;;;;17.95;8.27;;;;;;;9.51;100.00;93490.03;2120734;27;20019;-72
2022/10/13 01:57:34;;;;;;;16.83;8.20;;;;;;;9.40;100.00;93491.34;2121391;27;20533;-73
2022/10/13 01:58:36;;;;;;;12.40;7.80;;;;;;;9.47;100.00;93491.22;2119424;27;20058;-73
2022/10/13 01:59:37;;;;;;;13.63;8.23;;;;;;;9.39;100.00;93492.47;2120788;27;20545;-73
2022/10/13 02:00:46;;;;;;;11.43;7.85;;;;;;;9.45;100.00;93490.88;2121614;27;20102;-72
2022/10/13 02:01:47;;;;;;;11.80;7.55;;;;;;;9.39;100.00;93485.22;2120433;27;20106;-73
2022/10/13 02:03:42;;;;;;;13.50;7.95;;;;;;;9.41;100.00;93492.84;2120961;27;20038;-72
2022/10/13 02:05:01;;;;;;;15.00;7.43;;;;;;;9.36;100.00;93486.03;2086261;28;20091;-72
2022/10/13 02:06:29;;;;;;;11.55;7.55;;;;;;;9.42;100.00;93487.09;2086995;28;20027;-73
2022/10/13 02:07:53;;;;;;;13.75;7.55;;;;;;;9.40;100.00;93484.09;2084796;28;20043;-72
2022/10/13 02:09:09;;;;;;;13.60;8.35;;;;;;;9.35;100.00;93487.19;2086752;28;20033;-72
2022/10/13 02:10:20;;;;;;;19.88;8.00;;;;;;;9.34;100.00;93483.00;2104370;27;20058;-71
2022/10/13 02:11:22;;;;;;;13.73;7.60;;;;;;;9.36;100.00;93488.69;2116789;27;20040;-72
2022/10/13 02:12:41;;;;;;;11.00;7.60;;;;;;;9.46;100.00;93487.06;2121512;27;20023;-72
2022/10/13 02:13:49;;;;;;;12.25;7.82;;;;;;;9.49;100.00;93491.59;2121100;27;20571;-73
2022/10/13 02:14:52;;;;;;;10.02;7.00;;;;;;;9.39;100.00;93479.88;2117844;27;20054;-74
2022/10/13 02:15:57;;;;;;;12.70;7.88;;;;;;;9.31;100.00;93491.81;2121161;27;20026;-72
2022/10/13 02:17:02;;;;;;;11.32;7.60;;;;;;;9.37;100.00;93489.44;2120230;27;20039;-72
2022/10/13 02:18:05;;;;;;;12.30;7.60;;;;;;;9.43;100.00;93493.94;2121217;27;20064;-71
2022/10/13 02:19:10;;;;;;;14.07;8.15;;;;;;;9.41;100.00;93490.94;2121393;27;20031;-73
2022/10/13 02:20:12;;;;;;;12.35;8.15;;;;;;;9.36;100.00;93494.03;2121189;27;20042;-74
2022/10/13 02:21:16;;;;;;;16.25;8.80;;;;;;;9.33;100.00;93489.50;2121074;27;20031;-76
2022/10/13 02:22:21;;;;;;;10.95;8.27;;;;;;;9.42;100.00;93497.00;2117111;27;20139;-74
2022/10/13 02:23:23;;;;;;;14.20;7.88;;;;;;;9.40;100.00;93491.34;2121074;27;20038;-74
2022/10/13 02:24:24;;;;;;;16.10;8.90;;;;;;;9.38;100.00;93497.06;2120942;27;20083;-74
2022/10/13 02:25:26;;;;;;;11.18;7.75;;;;;;;9.33;100.00;93498.25;2121401;27;20027;-74
2022/10/13 02:26:28;;;;;;;15.38;8.70;;;;;;;9.36;100.00;93490.63;2121371;28;20473;-74
2022/10/13 02:27:29;;;;;;;13.18;7.90;;;;;;;9.39;100.00;93487.88;2120498;27;20026;-74
2022/10/13 02:28:30;;;;;;;14.68;8.55;;;;;;;9.38;100.00;93488.28;2120985;27;20062;-76
2022/10/13 02:29:31;;;;;;;10.77;7.88;;;;;;;9.40;100.00;93488.66;2120933;28;20031;-75
2022/10/13 02:30:32;;;;;;;16.33;8.57;;;;;;;9.30;100.00;93491.03;2121247;28;20027;-74
2022/10/13 02:31:33;;;;;;;13.50;8.90;;;;;;;9.33;100.00;93494.81;2112216;28;20485;-74
2022/10/13 02:32:34;;;;;;;13.20;8.57;;;;;;;9.24;100.00;93487.28;2099677;28;20024;-75
2022/10/13 02:33:36;;;;;;;13.52;9.20;;;;;;;9.21;100.00;93484.66;2106347;28;20075;-75
2022/10/13 02:34:37;;;;;;;14.95;8.68;;;;;;;9.27;100.00;93496.44;2120696;28;20030;-75
2022/10/13 02:35:38;;;;;;;16.48;9.25;;;;;;;9.27;100.00;93491.84;2121717;28;20385;-75
2022/10/13 02:36:39;;;;;;;15.73;9.10;;;;;;;9.24;100.00;93486.53;2121349;28;20384;-76
2022/10/13 02:37:40;;;;;;;18.20;8.70;;;;;;;9.19;100.00;93487.72;2120338;28;20027;-74
2022/10/13 02:38:41;;;;;;;15.25;9.00;;;;;;;9.27;100.00;93491.84;2120730;28;20027;-77
2022/10/13 02:39:42;;;;;;;14.38;8.95;;;;;;;9.32;100.00;93494.06;2120928;28;20046;-74
2022/10/13 02:40:43;;;;;;;12.88;8.90;;;;;;;9.32;100.00;93491.41;2120869;28;20023;-74
2022/10/13 02:41:44;;;;;;;14.38;8.65;;;;;;;9.37;100.00;93489.44;2121504;28;20019;-75
2022/10/13 02:42:45;;;;;;;15.43;8.68;;;;;;;9.38;100.00;93488.28;2111978;28;20031;-74
2022/10/13 02:43:46;;;;;;;16.80;9.05;;;;;;;9.36;100.00;93490.63;2112330;28;20618;-74
2022/10/13 02:44:47;;;;;;;17.92;8.85;;;;;;;9.29;100.00;93488.78;2121388;28;20030;-74
2022/10/13 02:45:48;;;;;;;12.43;8.43;;;;;;;9.20;100.00;93499.91;2121262;28;20069;-74
2022/10/13 02:46:49;;;;;;;23.88;9.00;;;;;;;9.26;100.00;93490.34;2121291;28;20434;-74
2022/10/13 02:47:50;;;;;;;12.48;9.02;;;;;;;9.12;100.00;93487.78;2120762;28;20052;-73
2022/10/13 02:48:51;;;;;;;16.42;8.85;;;;;;;9.17;100.00;93486.59;2121302;28;20023;-74
2022/10/13 02:49:52;;;;;;;13.82;9.55;;;;;;;9.22;100.00;93489.63;2120994;28;20080;-74
2022/10/13 02:50:54;;;;;;;20.30;9.07;;;;;;;9.32;100.00;93480.72;2120846;28;20063;-76
2022/10/13 02:51:55;;;;;;;15.75;9.43;;;;;;;9.21;100.00;93492.66;2111838;28;20020;-73
2022/10/13 02:52:56;;;;;;;17.40;9.43;;;;;;;9.17;100.00;93484.69;2103187;28;20048;-74
2022/10/13 02:53:57;;;;;;;14.50;9.02;;;;;;;9.17;100.00;93487.34;2112112;28;20031;-75
2022/10/13 02:54:59;;;;;;;23.48;9.65;;;;;;;9.15;100.00;93488.94;2121075;28;20023;-74
2022/10/13 02:56:00;;;;;;;16.80;9.70;;;;;;;9.09;100.00;93485.94;2120705;28;20035;-75
2022/10/13 02:57:01;;;;;;;12.55;9.00;;;;;;;9.09;100.00;93488.59;2121155;28;20437;-76
2022/10/13 02:58:03;;;;;;;18.58;9.02;;;;;;;9.10;100.00;93489.38;2120774;28;20019;-75
2022/10/13 02:59:04;;;;;;;18.52;10.13;;;;;;;9.08;100.00;93490.50;2119694;28;20030;-74
2022/10/13 03:00:06;;;;;;;17.23;9.02;;;;;;;9.10;100.00;93484.03;2121060;28;20030;-74
2022/10/13 03:01:11;;;;;;;20.90;9.00;;;;;;;9.14;100.00;93488.16;2120231;28;20038;-74
2022/10/13 03:02:13;;;;;;;15.48;9.20;;;;;;;9.12;100.00;93489.72;2103474;28;20066;-75
2022/10/13 03:03:14;;;;;;;16.35;8.13;;;;;;;9.23;100.00;93487.69;2095322;28;20028;-73
2022/10/13 03:04:15;;;;;;;15.27;9.43;;;;;;;9.12;100.00;93485.13;2108038;28;20047;-73
2022/10/13 03:05:16;;;;;;;20.38;9.85;;;;;;;9.12;100.00;93484.38;2107662;28;20438;-74
2022/10/13 03:06:20;;;;;;;22.25;9.32;;;;;;;9.23;100.00;93485.78;2103744;28;20176;-73
2022/10/13 03:07:21;;;;;;;26.38;10.45;;;;;;;9.29;100.00;93484.19;2111964;28;20029;-74
2022/10/13 03:08:22;;;;;;;20.38;10.05;;;;;;;9.28;100.00;93481.94;2120769;28;20049;-73
2022/10/13 03:09:23;;;;;;;15.00;9.30;;;;;;;9.24;100.00;93481.22;2120320;28;20027;-73
2022/10/13 03:10:24;;;;;;;19.65;9.20;;;;;;;9.15;100.00;93487.00;2112776;28;20038;-74
2022/10/13 03:11:24;;;;;;;17.52;9.68;;;;;;;9.13;100.00;93485.88;2113646;28;20409;-73
2022/10/13 03:12:25;;;;;;;20.23;10.15;;;;;;;9.14;100.00;93480.16;2122417;27;20445;-73
2022/10/13 03:13:26;;;;;;;16.17;9.52;;;;;;;9.15;100.00;93481.69;2122565;27;20300;-75
2022/10/13 03:14:27;;;;;;;25.35;10.23;;;;;;;9.19;100.00;93482.41;2122098;27;20055;-72
2022/10/13 03:15:28;;;;;;;24.88;10.63;;;;;;;9.18;100.00;93483.56;2122706;27;20058;-72
2022/10/13 03:16:31;;;;;;;19.60;10.13;;;;;;;9.21;100.00;93480.06;2122520;27;20126;-74
2022/10/13 03:17:32;;;;;;;44.65;11.32;;;;;;;9.22;100.00;93481.63;2122647;27;20439;-73
2022/10/13 03:18:33;;;;;;;17.98;10.10;;;;;;;9.19;100.00;93481.66;2122730;27;20136;-73
2022/10/13 03:19:34;;;;;;;24.35;10.48;;;;;;;9.30;100.00;93476.94;2118797;27;20027;-73
2022/10/13 03:20:36;;;;;;;25.73;10.38;;;;;;;9.17;100.00;93483.94;2121145;27;20149;-74
2022/10/13 03:21:38;;;;;;;24.92;11.00;;;;;;;9.13;100.00;93475.22;2113534;28;20024;-73
2022/10/13 03:22:39;;;;;;;28.65;11.85;;;;;;;9.16;100.00;93471.75;2113670;27;20141;-73
2022/10/13 03:23:40;;;;;;;27.20;11.85;;;;;;;9.10;100.00;93465.38;2122733;27;20019;-73
2022/10/13 03:24:41;;;;;;;29.13;11.25;;;;;;;9.02;100.00;93468.09;2122212;27;20034;-75
2022/10/13 03:25:42;;;;;;;21.63;11.10;;;;;;;9.06;100.00;93466.16;2122389;27;20121;-74
2022/10/13 03:26:43;;;;;;;20.40;11.23;;;;;;;9.03;100.00;93456.28;2122552;27;20227;-73
2022/10/13 03:27:44;;;;;;;38.72;11.13;;;;;;;9.08;100.00;93458.50;2122151;27;20494;-73
2022/10/13 03:28:49;;;;;;;42.97;11.48;;;;;;;9.11;100.00;93453.53;2122749;27;20031;-72
2022/10/13 03:29:50;;;;;;;33.60;11.27;;;;;;;9.10;100.00;93457.38;2105808;28;20086;-73
2022/10/13 03:31:05;;;;;;;96.55;12.15;;;;;;;9.05;100.00;93456.66;2105805;28;20478;-72
2022/10/13 03:32:06;;;;;;;55.85;11.13;;;;;;;8.97;100.00;93455.19;2116131;27;20035;-72
2022/10/13 03:33:07;;;;;;;61.55;11.60;;;;;;;8.99;100.00;93460.13;2122590;27;20019;-73
2022/10/13 03:34:10;;;;;;;39.35;11.32;;;;;;;9.01;100.00;93463.91;2113530;28;20118;-74
2022/10/13 03:35:11;;;;;;;43.95;12.05;;;;;;;9.03;100.00;93460.84;2112590;27;20027;-73
2022/10/13 03:36:13;;;;;;;29.60;11.32;;;;;;;9.05;100.00;93469.22;2122555;27;20537;-73
2022/10/13 03:37:14;;;;;;;27.63;11.38;;;;;;;9.04;100.00;93462.34;2122320;27;20019;-72
2022/10/13 03:38:15;;;;;;;23.67;10.93;;;;;;;8.99;100.00;93454.78;2122165;27;20027;-73
2022/10/13 03:39:16;;;;;;;20.52;11.85;;;;;;;9.06;100.00;93460.06;2118193;27;20456;-74
2022/10/13 03:40:17;;;;;;;18.30;10.95;;;;;;;9.04;100.00;93465.03;2121696;27;20034;-73
2022/10/13 03:41:17;;;;;;;17.02;10.80;;;;;;;8.96;100.00;93467.03;2122743;27;20481;-75
2022/10/13 03:42:18;;;;;;;28.80;11.98;;;;;;;8.92;100.00;93463.63;2113395;28;21044;-73
2022/10/13 03:43:19;;;;;;;19.52;11.32;;;;;;;8.96;100.00;93477.69;2113528;28;20027;-73
2022/10/13 03:44:20;;;;;;;24.70;11.20;;;;;;;9.13;100.00;93473.34;2113349;28;20070;-74
2022/10/13 03:45:21;;;;;;;30.27;11.25;;;;;;;9.03;100.00;93477.59;2112658;28;20059;-74
2022/10/13 03:46:26;;;;;;;38.88;12.13;;;;;;;8.85;100.00;93481.59;2121659;27;20031;-74
2022/10/13 03:47:27;;;;;;;27.02;10.98;;;;;;;8.96;100.00;93472.34;2122134;27;20365;-74
2022/10/13 03:48:28;;;;;;;30.33;11.00;;;;;;;8.88;100.00;93476.25;2122475;27;20042;-76
2022/10/13 03:49:29;;;;;;;24.05;10.70;;;;;;;8.90;100.00;93473.91;2122341;27;20381;-75
2022/10/13 03:50:30;;;;;;;35.67;10.40;;;;;;;8.81;100.00;93476.28;2122651;27;20050;-73
2022/10/13 03:51:32;;;;;;;39.72;10.82;;;;;;;8.79;100.00;93476.69;2119919;27;20072;-74
2022/10/13 03:52:33;;;;;;;24.48;10.93;;;;;;;8.78;100.00;93469.84;2122071;27;20038;-74
2022/10/13 03:53:34;;;;;;;60.88;10.82;;;;;;;8.67;100.00;93474.50;2122427;27;20030;-74
2022/10/13 03:54:35;;;;;;;21.05;10.90;;;;;;;8.71;100.00;93471.81;2122360;27;20038;-74
2022/10/13 03:55:36;;;;;;;22.63;10.68;;;;;;;8.71;100.00;93469.16;2122371;27;20100;-74
2022/10/13 03:56:38;;;;;;;42.45;11.65;;;;;;;8.69;100.00;93464.22;2112923;28;20081;-74
2022/10/13 03:57:39;;;;;;;28.08;10.68;;;;;;;8.77;100.00;93462.25;2112689;27;20023;-73
2022/10/13 03:58:41;;;;;;;23.77;10.70;;;;;;;8.70;100.00;93457.00;2122547;27;20429;-73
2022/10/13 03:59:42;;;;;;;27.40;10.40;;;;;;;8.78;100.00;93466.41;2122474;27;20433;-74
2022/10/13 04:00:44;;;;;;;16.73;9.90;;;;;;;8.79;100.00;93465.28;2113848;28;20030;-74
2022/10/13 04:01:45;;;;;;;21.17;10.35;;;;;;;8.76;100.00;93461.47;2104981;28;20504;-73
2022/10/13 04:02:48;;;;;;;26.80;10.02;;;;;;;8.75;100.00;93467.97;2108955;28;20137;-73
2022/10/13 04:03:50;;;;;;;21.65;11.15;;;;;;;8.80;100.00;93462.22;2122438;27;20027;-74
2022/10/13 04:04:51;;;;;;;43.45;10.40;;;;;;;8.76;100.00;93464.16;2122527;27;20088;-74
2022/10/13 04:05:52;;;;;;;44.75;10.48;;;;;;;8.69;100.00;93464.22;2122569;27;20042;-72
2022/10/13 04:06:53;;;;;;;69.18;13.02;;;;;;;8.76;100.00;93466.06;2109821;28;20032;-73
2022/10/13 04:07:54;;;;;;;41.53;10.73;;;;;;;8.67;100.00;93463.84;2113331;28;20020;-75
2022/10/13 04:08:56;;;;;;;45.20;9.95;;;;;;;8.76;100.00;93468.72;2121845;27;20021;-75
2022/10/13 04:09:57;;;;;;;109.15;12.55;;;;;;;8.75;100.00;93467.22;2121974;27;20023;-73
2022/10/13 04:10:59;;;;;;;19.77;9.75;;;;;;;8.76;100.00;93463.41;2122520;27;20026;-75
2022/10/13 04:12:00;;;;;;;42.50;10.05;;;;;;;8.75;100.00;93467.22;2112397;28;20725;-73
2022/10/13 04:13:01;;;;;;;13.63;9.95;;;;;;;8.77;100.00;93463.00;2112887;28;20024;-74
2022/10/13 04:14:02;;;;;;;37.25;9.50;;;;;;;8.69;100.00;93460.78;2122338;27;20411;-73
2022/10/13 04:15:05;;;;;;;23.67;9.27;;;;;;;8.65;100.00;93458.19;2113003;28;20128;-74
2022/10/13 04:16:19;;;;;;;68.38;10.00;;;;;;;8.65;100.00;93457.41;2113545;27;20066;-73
2022/10/13 04:17:21;;;;;;;41.75;9.63;;;;;;;8.68;100.00;93459.28;2101107;28;20095;-73
2022/10/13 04:18:22;;;;;;;17.83;8.70;;;;;;;8.70;100.00;93463.06;2108769;28;20097;-74
2022/10/13 04:19:23;;;;;;;33.28;9.85;;;;;;;8.62;100.00;93464.28;2122414;27;20681;-75
2022/10/13 04:20:25;;;;;;;19.30;9.60;;;;;;;8.63;100.00;93465.03;2122399;27;20111;-75
2022/10/13 04:21:27;;;;;;;32.10;9.20;;;;;;;8.70;100.00;93463.06;2121737;27;20642;-73
2022/10/13 04:22:28;;;;;;;63.83;9.02;;;;;;;8.68;100.00;93461.94;2120656;27;20026;-74
2022/10/13 04:23:29;;;;;;;104.00;10.70;;;;;;;8.50;100.00;93457.53;2122140;27;20034;-72
2022/10/13 04:24:30;;;;;;;136.43;10.32;;;;;;;8.56;100.00;93466.63;2122235;27;20069;-72
2022/10/13 04:25:36;;;;;;;62.67;9.70;;;;;;;8.51;100.00;93455.63;2122805;27;20023;-73
2022/10/13 04:26:38;;;;;;;165.15;11.25;;;;;;;8.38;100.00;93460.66;2122443;27;20028;-74
2022/10/13 04:27:39;;;;;;;40.22;9.57;;;;;;;8.47;100.00;93453.00;2117975;27;20691;-75
2022/10/13 04:28:40;;;;;;;61.33;9.60;;;;;;;8.47;100.00;93461.00;2117593;27;20034;-73
2022/10/13 04:29:41;;;;;;;39.95;9.30;;;;;;;8.56;100.00;93477.28;2118249;27;20030;-73
2022/10/13 04:30:42;;;;;;;17.13;8.55;;;;;;;8.55;100.00;93470.41;2118959;27;20031;-74
2022/10/13 04:31:43;;;;;;;68.30;9.73;;;;;;;8.46;100.00;93466.69;2119494;27;20122;-71
2022/10/13 04:32:45;;;;;;;113.88;9.95;;;;;;;8.35;100.00;93469.44;2106171;28;20031;-72
2022/10/13 04:33:46;;;;;;;87.50;9.82;;;;;;;8.35;100.00;93464.09;2100296;28;20615;-72
2022/10/13 04:34:47;;;;;;;17.65;8.50;;;;;;;8.45;100.00;93471.28;2110320;28;20504;-73
2022/10/13 04:35:49;;;;;;;34.70;8.10;;;;;;;8.48;100.00;93469.75;2110666;28;20027;-71
2022/10/13 04:36:50;;;;;;;19.33;8.13;;;;;;;8.49;100.00;93473.91;2120091;27;20051;-73
2022/10/13 04:37:51;;;;;;;19.02;7.82;;;;;;;8.51;100.00;93467.03;2119426;27;20099;-73
2022/10/13 04:38:54;;;;;;;26.48;8.07;;;;;;;8.51;100.00;93471.59;2120305;27;20079;-71
2022/10/13 04:39:58;;;;;;;99.57;9.25;;;;;;;8.29;100.00;93474.41;2119620;27;20023;-72
2022/10/13 04:41:04;;;;;;;82.97;9.07;;;;;;;8.31;100.00;93476.69;2119711;27;20610;-71
2022/10/13 04:42:05;;;;;;;91.80;8.52;;;;;;;8.31;100.00;93471.34;2119986;27;20031;-72
2022/10/13 04:43:06;;;;;;;20.33;7.68;;;;;;;8.30;100.00;93470.59;2107628;28;20071;-71
2022/10/13 04:44:07;;;;;;;115.45;9.52;;;;;;;8.26;100.00;93474.44;2105033;27;20037;-71
2022/10/13 04:45:08;;;;;;;46.55;7.90;;;;;;;8.35;100.00;93471.34;2119588;27;20054;-72
2022/10/13 04:46:18;;;;;;;48.40;7.40;;;;;;;8.38;100.00;93471.31;2119318;27;20030;-71
2022/10/13 04:47:19;;;;;;;66.88;7.95;;;;;;;8.54;100.00;93470.81;2115694;27;20705;-74
2022/10/13 04:48:20;;;;;;;69.35;8.77;;;;;;;8.42;100.00;93473.97;2117132;27;20063;-74
2022/10/13 04:49:21;;;;;;;106.03;7.85;;;;;;;8.47;100.00;93465.53;2119503;27;20539;-73
2022/10/13 04:50:22;;;;;;;66.90;7.68;;;;;;;8.41;100.00;93469.78;2119148;27;20039;-73
2022/10/13 04:51:24;;;;;;;9.73;6.60;;;;;;;8.47;100.00;93463.66;2101385;28;20027;-77
2022/10/13 04:52:25;;;;;;;32.20;6.97;;;;;;;8.52;100.00;93459.81;2093927;28;20652;-74
2022/10/13 04:53:28;;;;;;;20.35;6.30;;;;;;;8.44;100.00;93461.78;2110906;27;20034;-75
2022/10/13 04:54:29;;;;;;;36.88;7.10;;;;;;;8.37;100.00;93455.75;2119627;27;20022;-70
2022/10/13 04:55:30;;;;;;;138.07;8.00;;;;;;;8.19;100.00;93461.16;2120316;27;20027;-71
2022/10/13 04:56:32;;;;;;;36.58;6.63;;;;;;;8.23;100.00;93453.91;2120248;27;20510;-71
2022/10/13 04:57:34;;;;;;;30.55;6.53;;;;;;;8.14;100.00;93457.03;2119950;27;20038;-71
2022/10/13 04:58:36;;;;;;;62.83;6.85;;;;;;;8.22;100.00;93457.72;2119013;27;20058;-73